sensor_id;sensor_type;location;lat;lon;timestamp;pressure;altitude;pressure_sealevel;temperature;humidity
77366;BME280;66430;50.182;11.704;2023-04-03T00:02:23;95382.36;;;1.97;44.22
77366;BME280;66430;50.182;11.704;2023-04-03T00:04:49;95373.70;;;2.07;43.87
77366;BME280;66430;50.182;11.704;2023-04-03T00:07:14;95380.13;;;2.07;44.38
77366;BME280;66430;50.182;11.704;2023-04-03T00:09:40;95387.41;;;2.15;44.29
77366;BME280;66430;50.182;11.704;2023-04-03T00:12:06;95382.45;;;2.03;44.56
77366;BME280;66430;50.182;11.704;2023-04-03T00:14:31;95389.14;;;1.70;45.38
77366;BME280;66430;50.182;11.704;2023-04-03T00:16:56;95387.33;;;1.96;45.04
77366;BME280;66430;50.182;11.704;2023-04-03T00:19:22;95391.64;;;2.01;44.62
77366;BME280;66430;50.182;11.704;2023-04-03T00:21:48;95390.96;;;2.25;44.50
77366;BME280;66430;50.182;11.704;2023-04-03T00:24:13;95385.80;;;2.44;44.28
77366;BME280;66430;50.182;11.704;2023-04-03T00:26:39;95390.93;;;2.17;44.93
77366;BME280;66430;50.182;11.704;2023-04-03T00:29:05;95401.07;;;2.30;44.47
77366;BME280;66430;50.182;11.704;2023-04-03T00:31:30;95401.06;;;2.34;44.62
77366;BME280;66430;50.182;11.704;2023-04-03T00:33:56;95399.28;;;1.85;45.23
77366;BME280;66430;50.182;11.704;2023-04-03T00:36:21;95398.60;;;1.90;45.00
77366;BME280;66430;50.182;11.704;2023-04-03T00:38:46;95398.98;;;2.47;44.34
77366;BME280;66430;50.182;11.704;2023-04-03T00:41:12;95400.74;;;2.33;44.63
77366;BME280;66430;50.182;11.704;2023-04-03T00:43:38;95402.91;;;2.42;44.54
77366;BME280;66430;50.182;11.704;2023-04-03T00:46:03;95399.42;;;2.34;44.63
77366;BME280;66430;50.182;11.704;2023-04-03T00:48:31;95399.57;;;2.00;44.89
77366;BME280;66430;50.182;11.704;2023-04-03T00:50:56;95401.56;;;1.70;45.46
77366;BME280;66430;50.182;11.704;2023-04-03T00:53:25;95398.60;;;1.66;45.61
77366;BME280;66430;50.182;11.704;2023-04-03T00:55:47;95398.48;;;2.00;45.23
77366;BME280;66430;50.182;11.704;2023-04-03T00:58:12;95398.04;;;2.20;44.63
77366;BME280;66430;50.182;11.704;2023-04-03T01:00:38;95396.23;;;1.71;46.09
77366;BME280;66430;50.182;11.704;2023-04-03T01:03:02;95400.98;;;1.59;45.67
77366;BME280;66430;50.182;11.704;2023-04-03T01:05:28;95400.33;;;1.81;46.03
77366;BME280;66430;50.182;11.704;2023-04-03T01:07:53;95395.91;;;2.10;45.47
77366;BME280;66430;50.182;11.704;2023-04-03T01:10:20;95391.77;;;1.74;45.70
77366;BME280;66430;50.182;11.704;2023-04-03T01:12:47;95396.84;;;1.71;46.13
77366;BME280;66430;50.182;11.704;2023-04-03T01:15:13;95401.29;;;1.47;46.22
77366;BME280;66430;50.182;11.704;2023-04-03T01:17:46;95400.29;;;1.34;46.31
77366;BME280;66430;50.182;11.704;2023-04-03T01:22:29;95405.33;;;1.85;45.79
77366;BME280;66430;50.182;11.704;2023-04-03T01:24:53;95409.32;;;1.58;45.33
77366;BME280;66430;50.182;11.704;2023-04-03T01:27:18;95411.11;;;1.64;45.56
77366;BME280;66430;50.182;11.704;2023-04-03T01:29:44;95407.63;;;1.88;45.02
77366;BME280;66430;50.182;11.704;2023-04-03T01:32:10;95419.40;;;1.53;45.01
77366;BME280;66430;50.182;11.704;2023-04-03T01:34:35;95413.24;;;1.86;44.31
77366;BME280;66430;50.182;11.704;2023-04-03T01:37:01;95408.45;;;1.93;44.44
77366;BME280;66430;50.182;11.704;2023-04-03T01:39:26;95400.26;;;1.80;44.32
77366;BME280;66430;50.182;11.704;2023-04-03T01:41:53;95405.57;;;1.94;44.19
77366;BME280;66430;50.182;11.704;2023-04-03T01:44:17;95404.07;;;2.47;43.33
77366;BME280;66430;50.182;11.704;2023-04-03T01:46:43;95403.43;;;2.39;43.04
77366;BME280;66430;50.182;11.704;2023-04-03T01:49:09;95405.48;;;2.80;42.58
77366;BME280;66430;50.182;11.704;2023-04-03T01:51:34;95406.15;;;2.26;43.30
77366;BME280;66430;50.182;11.704;2023-04-03T01:54:00;95407.20;;;2.04;43.77
77366;BME280;66430;50.182;11.704;2023-04-03T01:56:26;95404.22;;;1.71;44.48
77366;BME280;66430;50.182;11.704;2023-04-03T01:58:51;95405.47;;;1.81;44.91
77366;BME280;66430;50.182;11.704;2023-04-03T02:01:17;95415.01;;;1.91;44.98
77366;BME280;66430;50.182;11.704;2023-04-03T02:03:42;95411.35;;;1.69;45.45
77366;BME280;66430;50.182;11.704;2023-04-03T02:06:08;95415.90;;;1.36;45.46
77366;BME280;66430;50.182;11.704;2023-04-03T02:08:33;95412.34;;;1.21;45.74
77366;BME280;66430;50.182;11.704;2023-04-03T02:10:59;95411.20;;;0.75;46.07
77366;BME280;66430;50.182;11.704;2023-04-03T02:13:24;95416.50;;;1.23;45.09
77366;BME280;66430;50.182;11.704;2023-04-03T02:15:50;95415.28;;;1.12;45.50
77366;BME280;66430;50.182;11.704;2023-04-03T02:18:16;95414.48;;;1.73;44.94
77366;BME280;66430;50.182;11.704;2023-04-03T02:20:41;95405.12;;;1.81;44.35
77366;BME280;66430;50.182;11.704;2023-04-03T02:23:07;95413.99;;;1.98;43.73
77366;BME280;66430;50.182;11.704;2023-04-03T02:25:33;95409.25;;;2.08;43.58
77366;BME280;66430;50.182;11.704;2023-04-03T02:27:58;95414.99;;;1.97;44.16
77366;BME280;66430;50.182;11.704;2023-04-03T02:30:24;95410.08;;;1.82;43.82
77366;BME280;66430;50.182;11.704;2023-04-03T02:32:49;95408.00;;;1.85;43.48
77366;BME280;66430;50.182;11.704;2023-04-03T02:35:15;95413.60;;;1.65;43.82
77366;BME280;66430;50.182;11.704;2023-04-03T02:37:41;95412.99;;;1.78;44.14
77366;BME280;66430;50.182;11.704;2023-04-03T02:40:07;95407.15;;;1.84;43.98
77366;BME280;66430;50.182;11.704;2023-04-03T02:42:31;95414.69;;;1.47;44.97
77366;BME280;66430;50.182;11.704;2023-04-03T02:44:57;95417.82;;;1.52;44.34
77366;BME280;66430;50.182;11.704;2023-04-03T02:47:22;95414.56;;;1.59;43.96
77366;BME280;66430;50.182;11.704;2023-04-03T02:49:48;95416.83;;;1.53;44.09
77366;BME280;66430;50.182;11.704;2023-04-03T02:52:13;95422.96;;;1.53;44.81
77366;BME280;66430;50.182;11.704;2023-04-03T02:54:39;95424.37;;;1.98;43.81
77366;BME280;66430;50.182;11.704;2023-04-03T02:57:04;95423.20;;;1.59;43.58
77366;BME280;66430;50.182;11.704;2023-04-03T02:59:30;95432.10;;;1.47;43.73
77366;BME280;66430;50.182;11.704;2023-04-03T03:01:56;95434.57;;;1.41;44.14
77366;BME280;66430;50.182;11.704;2023-04-03T03:04:21;95435.88;;;1.66;43.50
77366;BME280;66430;50.182;11.704;2023-04-03T03:06:46;95427.36;;;1.71;43.03
77366;BME280;66430;50.182;11.704;2023-04-03T03:09:12;95430.83;;;1.54;43.41
77366;BME280;66430;50.182;11.704;2023-04-03T03:11:37;95431.54;;;1.56;43.36
77366;BME280;66430;50.182;11.704;2023-04-03T03:14:03;95429.92;;;1.15;43.97
77366;BME280;66430;50.182;11.704;2023-04-03T03:16:29;95428.90;;;0.89;45.41
77366;BME280;66430;50.182;11.704;2023-04-03T03:18:54;95429.33;;;0.77;45.68
77366;BME280;66430;50.182;11.704;2023-04-03T03:21:20;95433.98;;;1.06;45.06
77366;BME280;66430;50.182;11.704;2023-04-03T03:23:45;95434.92;;;0.92;44.03
77366;BME280;66430;50.182;11.704;2023-04-03T03:26:12;95437.05;;;0.94;43.98
77366;BME280;66430;50.182;11.704;2023-04-03T03:28:37;95429.57;;;0.52;44.63
77366;BME280;66430;50.182;11.704;2023-04-03T03:31:02;95432.80;;;0.81;44.39
77366;BME280;66430;50.182;11.704;2023-04-03T03:33:28;95434.73;;;0.75;44.22
77366;BME280;66430;50.182;11.704;2023-04-03T03:35:53;95432.12;;;1.00;44.46
77366;BME280;66430;50.182;11.704;2023-04-03T03:38:19;95437.67;;;0.45;45.86
77366;BME280;66430;50.182;11.704;2023-04-03T03:40:44;95436.19;;;0.55;46.54
77366;BME280;66430;50.182;11.704;2023-04-03T03:43:10;95433.47;;;0.29;46.66
77366;BME280;66430;50.182;11.704;2023-04-03T03:45:35;95435.92;;;-0.03;46.56
77366;BME280;66430;50.182;11.704;2023-04-03T03:48:01;95438.12;;;-0.10;47.15
77366;BME280;66430;50.182;11.704;2023-04-03T03:50:26;95432.45;;;0.23;46.85
77366;BME280;66430;50.182;11.704;2023-04-03T03:52:51;95436.69;;;0.09;46.66
77366;BME280;66430;50.182;11.704;2023-04-03T03:55:17;95438.47;;;0.60;45.74
77366;BME280;66430;50.182;11.704;2023-04-03T03:57:42;95437.97;;;0.38;45.86
77366;BME280;66430;50.182;11.704;2023-04-03T04:00:10;95439.83;;;0.66;45.64
77366;BME280;66430;50.182;11.704;2023-04-03T04:02:33;95446.53;;;0.47;45.35
77366;BME280;66430;50.182;11.704;2023-04-03T04:04:58;95447.24;;;0.03;46.19
77366;BME280;66430;50.182;11.704;2023-04-03T04:07:24;95449.27;;;0.01;46.47
77366;BME280;66430;50.182;11.704;2023-04-03T04:09:56;95452.51;;;0.41;46.06
77366;BME280;66430;50.182;11.704;2023-04-03T04:12:15;95449.36;;;0.20;46.00
77366;BME280;66430;50.182;11.704;2023-04-03T04:14:41;95448.35;;;0.39;45.20
77366;BME280;66430;50.182;11.704;2023-04-03T04:17:06;95449.64;;;0.85;44.72
77366;BME280;66430;50.182;11.704;2023-04-03T04:19:32;95450.50;;;0.88;44.35
77366;BME280;66430;50.182;11.704;2023-04-03T04:21:57;95446.18;;;0.59;44.67
77366;BME280;66430;50.182;11.704;2023-04-03T04:24:23;95443.60;;;0.81;44.67
77366;BME280;66430;50.182;11.704;2023-04-03T04:26:49;95448.93;;;0.05;46.29
77366;BME280;66430;50.182;11.704;2023-04-03T04:29:14;95453.00;;;-0.55;47.17
77366;BME280;66430;50.182;11.704;2023-04-03T04:31:40;95457.63;;;-0.25;46.98
77366;BME280;66430;50.182;11.704;2023-04-03T04:34:06;95452.76;;;0.07;46.11
77366;BME280;66430;50.182;11.704;2023-04-03T04:36:30;95455.96;;;0.05;46.13
77366;BME280;66430;50.182;11.704;2023-04-03T04:39:01;95454.68;;;0.10;46.00
77366;BME280;66430;50.182;11.704;2023-04-03T04:41:26;95454.72;;;-0.33;46.86
77366;BME280;66430;50.182;11.704;2023-04-03T04:43:46;95462.02;;;-0.62;47.13
77366;BME280;66430;50.182;11.704;2023-04-03T04:46:12;95463.95;;;-0.72;47.30
77366;BME280;66430;50.182;11.704;2023-04-03T04:48:37;95466.75;;;-0.63;47.99
77366;BME280;66430;50.182;11.704;2023-04-03T04:51:04;95467.23;;;-0.63;48.07
77366;BME280;66430;50.182;11.704;2023-04-03T04:53:29;95467.26;;;-1.19;49.15
77366;BME280;66430;50.182;11.704;2023-04-03T04:55:54;95470.38;;;-0.77;47.87
77366;BME280;66430;50.182;11.704;2023-04-03T04:58:20;95465.91;;;-0.33;47.21
77366;BME280;66430;50.182;11.704;2023-04-03T05:00:45;95476.27;;;-0.49;46.96
77366;BME280;66430;50.182;11.704;2023-04-03T05:03:10;95475.63;;;-0.46;46.74
77366;BME280;66430;50.182;11.704;2023-04-03T05:05:35;95478.36;;;-0.87;47.73
77366;BME280;66430;50.182;11.704;2023-04-03T05:08:00;95490.55;;;-0.87;48.89
77366;BME280;66430;50.182;11.704;2023-04-03T05:10:26;95482.48;;;-0.94;48.23
77366;BME280;66430;50.182;11.704;2023-04-03T05:12:51;95483.45;;;-0.73;47.43
77366;BME280;66430;50.182;11.704;2023-04-03T05:15:16;95481.59;;;-0.94;48.15
77366;BME280;66430;50.182;11.704;2023-04-03T05:17:42;95488.79;;;-1.35;48.47
77366;BME280;66430;50.182;11.704;2023-04-03T05:20:08;95488.89;;;-0.87;48.02
77366;BME280;66430;50.182;11.704;2023-04-03T05:22:32;95487.07;;;-0.60;46.84
77366;BME280;66430;50.182;11.704;2023-04-03T05:24:58;95489.47;;;-1.08;47.78
77366;BME280;66430;50.182;11.704;2023-04-03T05:27:23;95493.96;;;-0.52;47.49
77366;BME280;66430;50.182;11.704;2023-04-03T05:29:49;95491.29;;;-0.80;47.20
77366;BME280;66430;50.182;11.704;2023-04-03T05:32:14;95494.41;;;-1.15;47.93
77366;BME280;66430;50.182;11.704;2023-04-03T05:34:40;95498.14;;;-1.63;48.42
77366;BME280;66430;50.182;11.704;2023-04-03T05:37:05;95488.17;;;-1.48;49.12
77366;BME280;66430;50.182;11.704;2023-04-03T05:39:30;95491.77;;;-1.80;49.64
77366;BME280;66430;50.182;11.704;2023-04-03T05:41:56;95495.31;;;-1.79;49.52
77366;BME280;66430;50.182;11.704;2023-04-03T05:44:21;95493.41;;;-1.84;49.99
77366;BME280;66430;50.182;11.704;2023-04-03T05:46:46;95491.68;;;-1.51;49.18
77366;BME280;66430;50.182;11.704;2023-04-03T05:49:12;95495.72;;;-1.24;48.83
77366;BME280;66430;50.182;11.704;2023-04-03T05:51:38;95496.75;;;-1.55;49.41
77366;BME280;66430;50.182;11.704;2023-04-03T05:54:09;95499.24;;;-1.88;49.46
77366;BME280;66430;50.182;11.704;2023-04-03T05:56:28;95505.70;;;-1.33;48.57
77366;BME280;66430;50.182;11.704;2023-04-03T05:58:54;95503.74;;;-1.53;48.69
77366;BME280;66430;50.182;11.704;2023-04-03T06:01:24;95504.71;;;-1.58;49.52
77366;BME280;66430;50.182;11.704;2023-04-03T06:03:44;95507.17;;;-1.25;49.21
77366;BME280;66430;50.182;11.704;2023-04-03T06:06:12;95509.20;;;-1.11;48.25
77366;BME280;66430;50.182;11.704;2023-04-03T06:08:34;95503.10;;;-0.87;48.35
77366;BME280;66430;50.182;11.704;2023-04-03T06:11:05;95513.48;;;-0.90;47.52
77366;BME280;66430;50.182;11.704;2023-04-03T06:13:25;95514.56;;;-0.68;46.94
77366;BME280;66430;50.182;11.704;2023-04-03T06:15:51;95517.65;;;-0.11;46.36
77366;BME280;66430;50.182;11.704;2023-04-03T06:18:16;95526.08;;;-0.37;45.67
77366;BME280;66430;50.182;11.704;2023-04-03T06:20:41;95526.31;;;-0.66;45.79
77366;BME280;66430;50.182;11.704;2023-04-03T06:23:07;95526.34;;;-0.32;45.11
77366;BME280;66430;50.182;11.704;2023-04-03T06:25:32;95523.44;;;-0.40;45.96
77366;BME280;66430;50.182;11.704;2023-04-03T06:27:58;95517.61;;;-1.06;47.33
77366;BME280;66430;50.182;11.704;2023-04-03T06:30:24;95525.28;;;-0.86;48.00
77366;BME280;66430;50.182;11.704;2023-04-03T06:32:49;95525.12;;;-1.08;47.15
77366;BME280;66430;50.182;11.704;2023-04-03T06:35:14;95533.75;;;-1.18;47.55
77366;BME280;66430;50.182;11.704;2023-04-03T06:37:40;95542.23;;;-0.96;46.70
77366;BME280;66430;50.182;11.704;2023-04-03T06:40:09;95541.50;;;-1.08;46.24
77366;BME280;66430;50.182;11.704;2023-04-03T06:42:30;95544.20;;;-1.27;46.76
77366;BME280;66430;50.182;11.704;2023-04-03T06:44:57;95554.02;;;-1.34;46.91
77366;BME280;66430;50.182;11.704;2023-04-03T06:47:21;95551.10;;;-1.23;46.94
77366;BME280;66430;50.182;11.704;2023-04-03T06:49:47;95549.78;;;-0.99;46.01
77366;BME280;66430;50.182;11.704;2023-04-03T06:52:12;95556.02;;;-1.10;45.57
77366;BME280;66430;50.182;11.704;2023-04-03T06:54:38;95552.45;;;-0.87;45.26
77366;BME280;66430;50.182;11.704;2023-04-03T06:57:03;95556.37;;;-1.26;46.82
77366;BME280;66430;50.182;11.704;2023-04-03T06:59:28;95556.36;;;-1.19;46.89
77366;BME280;66430;50.182;11.704;2023-04-03T07:01:54;95559.09;;;-0.93;46.89
77366;BME280;66430;50.182;11.704;2023-04-03T07:04:19;95560.42;;;-0.63;46.62
77366;BME280;66430;50.182;11.704;2023-04-03T07:06:44;95571.58;;;-1.40;47.33
77366;BME280;66430;50.182;11.704;2023-04-03T07:09:10;95569.51;;;-0.93;45.27
77366;BME280;66430;50.182;11.704;2023-04-03T07:11:35;95574.08;;;-1.09;45.73
77366;BME280;66430;50.182;11.704;2023-04-03T07:14:01;95589.77;;;-1.34;46.19
77366;BME280;66430;50.182;11.704;2023-04-03T07:16:26;95585.46;;;-1.75;46.15
77366;BME280;66430;50.182;11.704;2023-04-03T07:18:52;95583.49;;;-1.88;47.28
77366;BME280;66430;50.182;11.704;2023-04-03T07:21:17;95589.64;;;-1.29;45.92
77366;BME280;66430;50.182;11.704;2023-04-03T07:23:43;95583.62;;;-1.25;44.96
77366;BME280;66430;50.182;11.704;2023-04-03T07:26:08;95584.15;;;-0.64;44.44
77366;BME280;66430;50.182;11.704;2023-04-03T07:28:34;95584.77;;;-0.49;44.07
77366;BME280;66430;50.182;11.704;2023-04-03T07:31:02;95583.51;;;-1.00;44.46
77366;BME280;66430;50.182;11.704;2023-04-03T07:33:25;95593.60;;;-0.43;44.02
77366;BME280;66430;50.182;11.704;2023-04-03T07:35:51;95596.19;;;-1.39;44.65
77366;BME280;66430;50.182;11.704;2023-04-03T07:38:16;95594.48;;;-1.34;45.28
77366;BME280;66430;50.182;11.704;2023-04-03T07:40:46;95594.58;;;-1.35;45.73
77366;BME280;66430;50.182;11.704;2023-04-03T07:43:07;95588.83;;;-1.20;43.43
77366;BME280;66430;50.182;11.704;2023-04-03T07:45:34;95589.29;;;-1.13;43.92
77366;BME280;66430;50.182;11.704;2023-04-03T07:47:58;95603.38;;;-1.40;43.20
77366;BME280;66430;50.182;11.704;2023-04-03T07:50:23;95606.83;;;-1.13;44.09
77366;BME280;66430;50.182;11.704;2023-04-03T07:52:49;95606.72;;;-1.31;45.55
77366;BME280;66430;50.182;11.704;2023-04-03T07:55:14;95607.28;;;-1.14;44.84
77366;BME280;66430;50.182;11.704;2023-04-03T07:57:39;95613.33;;;-1.26;42.47
77366;BME280;66430;50.182;11.704;2023-04-03T08:00:06;95600.48;;;-1.16;42.50
77366;BME280;66430;50.182;11.704;2023-04-03T08:02:31;95602.65;;;-1.46;43.18
77366;BME280;66430;50.182;11.704;2023-04-03T08:04:57;95618.24;;;-2.07;44.62
77366;BME280;66430;50.182;11.704;2023-04-03T08:07:22;95610.85;;;-2.37;46.50
77366;BME280;66430;50.182;11.704;2023-04-03T08:09:48;95607.37;;;-2.01;45.24
77366;BME280;66430;50.182;11.704;2023-04-03T08:12:15;95598.38;;;-1.28;43.30
77366;BME280;66430;50.182;11.704;2023-04-03T08:14:39;95625.26;;;-1.69;44.17
77366;BME280;66430;50.182;11.704;2023-04-03T08:17:04;95614.15;;;-1.78;44.45
77366;BME280;66430;50.182;11.704;2023-04-03T08:19:30;95601.13;;;-1.45;46.32
77366;BME280;66430;50.182;11.704;2023-04-03T08:21:56;95606.87;;;-0.42;44.01
77366;BME280;66430;50.182;11.704;2023-04-03T08:24:21;95604.42;;;-0.95;45.10
77366;BME280;66430;50.182;11.704;2023-04-03T08:26:47;95607.93;;;-0.89;42.77
77366;BME280;66430;50.182;11.704;2023-04-03T08:29:13;95610.38;;;-0.52;41.84
77366;BME280;66430;50.182;11.704;2023-04-03T08:31:38;95604.06;;;-0.30;43.70
77366;BME280;66430;50.182;11.704;2023-04-03T08:34:04;95625.70;;;-0.03;42.06
77366;BME280;66430;50.182;11.704;2023-04-03T08:36:30;95629.98;;;-0.78;43.60
77366;BME280;66430;50.182;11.704;2023-04-03T08:39:01;95627.38;;;-0.86;43.84
77366;BME280;66430;50.182;11.704;2023-04-03T08:41:27;95625.53;;;-1.21;42.81
77366;BME280;66430;50.182;11.704;2023-04-03T08:43:56;95642.71;;;-1.38;45.48
77366;BME280;66430;50.182;11.704;2023-04-03T08:46:14;95647.83;;;-1.39;43.98
77366;BME280;66430;50.182;11.704;2023-04-03T08:48:40;95631.95;;;-1.00;43.84
77366;BME280;66430;50.182;11.704;2023-04-03T08:51:08;95638.73;;;-0.60;42.33
77366;BME280;66430;50.182;11.704;2023-04-03T08:53:32;95657.12;;;-0.77;45.79
77366;BME280;66430;50.182;11.704;2023-04-03T08:55:55;95647.19;;;-1.07;44.35
77366;BME280;66430;50.182;11.704;2023-04-03T08:58:22;95631.33;;;-1.37;43.66
77366;BME280;66430;50.182;11.704;2023-04-03T09:00:48;95629.85;;;-0.78;44.72
77366;BME280;66430;50.182;11.704;2023-04-03T09:03:13;95649.93;;;-0.58;42.80
77366;BME280;66430;50.182;11.704;2023-04-03T09:05:41;95653.50;;;-0.76;42.13
77366;BME280;66430;50.182;11.704;2023-04-03T09:08:10;95660.37;;;-0.88;41.26
77366;BME280;66430;50.182;11.704;2023-04-03T09:10:30;95649.14;;;-0.43;41.90
77366;BME280;66430;50.182;11.704;2023-04-03T09:12:59;95649.77;;;0.24;42.28
77366;BME280;66430;50.182;11.704;2023-04-03T09:15:22;95662.30;;;0.25;40.18
77366;BME280;66430;50.182;11.704;2023-04-03T09:17:55;95664.45;;;0.20;39.56
77366;BME280;66430;50.182;11.704;2023-04-03T09:20:19;95650.18;;;0.57;39.68
77366;BME280;66430;50.182;11.704;2023-04-03T09:22:38;95660.00;;;0.55;40.03
77366;BME280;66430;50.182;11.704;2023-04-03T09:25:06;95654.72;;;-0.06;39.47
77366;BME280;66430;50.182;11.704;2023-04-03T09:27:27;95660.34;;;0.12;37.98
77366;BME280;66430;50.182;11.704;2023-04-03T09:29:58;95654.54;;;0.72;37.51
77366;BME280;66430;50.182;11.704;2023-04-03T09:32:22;95660.22;;;0.68;38.32
77366;BME280;66430;50.182;11.704;2023-04-03T09:34:44;95667.00;;;1.01;37.17
77366;BME280;66430;50.182;11.704;2023-04-03T09:37:10;95650.57;;;0.97;37.15
77366;BME280;66430;50.182;11.704;2023-04-03T09:42:02;95651.06;;;0.43;36.87
77366;BME280;66430;50.182;11.704;2023-04-03T09:44:28;95662.02;;;0.35;37.57
77366;BME280;66430;50.182;11.704;2023-04-03T09:46:51;95660.60;;;0.70;36.44
77366;BME280;66430;50.182;11.704;2023-04-03T09:49:18;95652.72;;;1.16;36.12
77366;BME280;66430;50.182;11.704;2023-04-03T09:51:43;95649.73;;;0.76;36.48
77366;BME280;66430;50.182;11.704;2023-04-03T09:56:34;95655.85;;;-0.10;38.03
77366;BME280;66430;50.182;11.704;2023-04-03T09:59:14;95661.00;;;0.57;38.16
77366;BME280;66430;50.182;11.704;2023-04-03T10:01:29;95658.12;;;-0.23;39.13
77366;BME280;66430;50.182;11.704;2023-04-03T10:04:04;95646.27;;;-0.36;41.77
77366;BME280;66430;50.182;11.704;2023-04-03T10:06:23;95648.99;;;-0.72;40.48
77366;BME280;66430;50.182;11.704;2023-04-03T10:08:49;95653.51;;;-0.48;42.10
77366;BME280;66430;50.182;11.704;2023-04-03T10:11:11;95653.51;;;0.49;38.42
77366;BME280;66430;50.182;11.704;2023-04-03T10:13:33;95654.05;;;-0.40;37.90
77366;BME280;66430;50.182;11.704;2023-04-03T10:16:03;95653.46;;;-0.38;36.79
77366;BME280;66430;50.182;11.704;2023-04-03T10:18:33;95662.11;;;-0.60;38.11
77366;BME280;66430;50.182;11.704;2023-04-03T10:20:52;95650.01;;;-0.56;39.04
77366;BME280;66430;50.182;11.704;2023-04-03T10:23:21;95645.99;;;-0.15;39.44
77366;BME280;66430;50.182;11.704;2023-04-03T10:25:46;95640.24;;;-0.80;40.26
77366;BME280;66430;50.182;11.704;2023-04-03T10:28:11;95634.95;;;-0.77;41.14
77366;BME280;66430;50.182;11.704;2023-04-03T10:30:42;95629.82;;;-0.54;41.35
77366;BME280;66430;50.182;11.704;2023-04-03T10:33:07;95644.43;;;0.51;38.54
77366;BME280;66430;50.182;11.704;2023-04-03T10:35:34;95647.00;;;-0.13;40.08
77366;BME280;66430;50.182;11.704;2023-04-03T10:38:02;95639.40;;;-0.13;39.28
77366;BME280;66430;50.182;11.704;2023-04-03T10:40:24;95642.56;;;0.48;40.97
77366;BME280;66430;50.182;11.704;2023-04-03T10:42:46;95649.19;;;0.15;41.62
77366;BME280;66430;50.182;11.704;2023-04-03T10:45:18;95626.96;;;0.77;38.29
77366;BME280;66430;50.182;11.704;2023-04-03T10:47:37;95632.16;;;1.29;35.13
77366;BME280;66430;50.182;11.704;2023-04-03T10:50:02;95626.50;;;1.22;36.08
77366;BME280;66430;50.182;11.704;2023-04-03T10:52:27;95617.88;;;1.69;34.37
77366;BME280;66430;50.182;11.704;2023-04-03T10:54:57;95613.43;;;1.57;33.90
77366;BME280;66430;50.182;11.704;2023-04-03T10:57:14;95628.37;;;2.03;37.89
77366;BME280;66430;50.182;11.704;2023-04-03T10:59:43;95619.98;;;1.45;35.31
77366;BME280;66430;50.182;11.704;2023-04-03T11:02:11;95625.28;;;1.31;35.21
77366;BME280;66430;50.182;11.704;2023-04-03T11:04:35;95612.75;;;1.77;35.89
77366;BME280;66430;50.182;11.704;2023-04-03T11:07:01;95608.78;;;1.84;34.21
77366;BME280;66430;50.182;11.704;2023-04-03T11:09:25;95600.76;;;1.33;36.21
77366;BME280;66430;50.182;11.704;2023-04-03T11:11:48;95615.68;;;1.13;34.37
77366;BME280;66430;50.182;11.704;2023-04-03T11:14:19;95602.14;;;1.45;35.52
77366;BME280;66430;50.182;11.704;2023-04-03T11:16:43;95612.25;;;1.61;37.45
77366;BME280;66430;50.182;11.704;2023-04-03T11:19:11;95608.29;;;1.39;36.15
77366;BME280;66430;50.182;11.704;2023-04-03T11:21:34;95613.63;;;1.06;36.28
77366;BME280;66430;50.182;11.704;2023-04-03T11:23:58;95599.03;;;1.37;35.24
77366;BME280;66430;50.182;11.704;2023-04-03T11:26:24;95611.85;;;0.66;34.72
77366;BME280;66430;50.182;11.704;2023-04-03T11:28:53;95598.19;;;0.87;37.15
77366;BME280;66430;50.182;11.704;2023-04-03T11:31:26;95592.76;;;0.96;35.33
77366;BME280;66430;50.182;11.704;2023-04-03T11:33:45;95610.87;;;0.34;35.98
77366;BME280;66430;50.182;11.704;2023-04-03T11:36:08;95590.48;;;0.66;37.94
77366;BME280;66430;50.182;11.704;2023-04-03T11:38:34;95594.09;;;0.42;38.70
77366;BME280;66430;50.182;11.704;2023-04-03T11:40:59;95580.43;;;0.84;40.16
77366;BME280;66430;50.182;11.704;2023-04-03T11:43:24;95594.60;;;0.16;37.06
77366;BME280;66430;50.182;11.704;2023-04-03T11:45:54;95574.27;;;0.68;40.02
77366;BME280;66430;50.182;11.704;2023-04-03T11:50:42;95588.54;;;1.30;37.22
77366;BME280;66430;50.182;11.704;2023-04-03T11:55:44;95583.92;;;1.26;36.31
77366;BME280;66430;50.182;11.704;2023-04-03T11:58:03;95587.76;;;0.96;36.91
77366;BME280;66430;50.182;11.704;2023-04-03T12:02:46;95598.60;;;0.40;34.46
77366;BME280;66430;50.182;11.704;2023-04-03T12:05:26;95584.51;;;0.85;36.01
77366;BME280;66430;50.182;11.704;2023-04-03T12:07:37;95579.78;;;1.20;36.71
77366;BME280;66430;50.182;11.704;2023-04-03T12:10:15;95578.80;;;0.87;36.57
77366;BME280;66430;50.182;11.704;2023-04-03T12:12:33;95582.03;;;0.93;35.25
77366;BME280;66430;50.182;11.704;2023-04-03T12:14:54;95578.38;;;1.08;35.00
77366;BME280;66430;50.182;11.704;2023-04-03T12:17:23;95574.79;;;1.56;33.06
77366;BME280;66430;50.182;11.704;2023-04-03T12:19:46;95586.98;;;1.44;35.30
77366;BME280;66430;50.182;11.704;2023-04-03T12:22:14;95565.59;;;1.06;36.24
77366;BME280;66430;50.182;11.704;2023-04-03T12:24:38;95577.13;;;1.17;35.29
77366;BME280;66430;50.182;11.704;2023-04-03T12:29:34;95564.47;;;1.96;32.17
77366;BME280;66430;50.182;11.704;2023-04-03T12:32:06;95577.16;;;1.28;31.57
77366;BME280;66430;50.182;11.704;2023-04-03T12:34:28;95571.01;;;1.31;34.95
77366;BME280;66430;50.182;11.704;2023-04-03T12:36:54;95561.06;;;1.45;31.96
77366;BME280;66430;50.182;11.704;2023-04-03T12:39:21;95564.76;;;1.91;32.50
77366;BME280;66430;50.182;11.704;2023-04-03T12:41:41;95577.34;;;1.73;33.14
77366;BME280;66430;50.182;11.704;2023-04-03T12:44:17;95562.11;;;1.91;31.83
77366;BME280;66430;50.182;11.704;2023-04-03T12:46:36;95543.06;;;1.68;33.94
77366;BME280;66430;50.182;11.704;2023-04-03T12:48:55;95536.65;;;1.45;33.34
77366;BME280;66430;50.182;11.704;2023-04-03T12:51:22;95532.66;;;1.34;35.24
77366;BME280;66430;50.182;11.704;2023-04-03T12:53:45;95549.96;;;1.39;33.07
77366;BME280;66430;50.182;11.704;2023-04-03T12:56:21;95556.30;;;1.04;32.33
77366;BME280;66430;50.182;11.704;2023-04-03T12:58:36;95556.88;;;1.33;32.36
77366;BME280;66430;50.182;11.704;2023-04-03T13:01:03;95544.41;;;1.68;32.72
77366;BME280;66430;50.182;11.704;2023-04-03T13:03:27;95539.52;;;1.07;33.64